createdAt,value
2017-12-26T00:00:49.302Z,100230.09
2017-12-26T00:03:15.180Z,100227.52
2017-12-26T00:05:41.248Z,100231.14
2017-12-26T00:08:07.930Z,100216.23
2017-12-26T00:10:33.699Z,100210.22
2017-12-26T00:12:59.452Z,100211.62
2017-12-26T00:15:25.203Z,100211.80
2017-12-26T00:17:50.947Z,100207.71
2017-12-26T00:20:16.913Z,100210.45
2017-12-26T00:22:42.675Z,100201.30
2017-12-26T00:25:09.337Z,100207.10
2017-12-26T00:27:35.102Z,100205.41
2017-12-26T00:30:00.872Z,100196.66
2017-12-26T00:32:26.630Z,100184.08
2017-12-26T00:34:52.396Z,100174.94
2017-12-26T00:37:18.160Z,100169.25
2017-12-26T00:39:43.971Z,100168.35
2017-12-26T00:42:09.723Z,100160.04
2017-12-26T00:44:35.454Z,100165.70
2017-12-26T00:47:01.207Z,100160.04
2017-12-26T00:49:27.015Z,100155.72
2017-12-26T00:51:52.858Z,100152.28
2017-12-26T00:54:18.621Z,100144.78
2017-12-26T00:56:44.384Z,100137.05
2017-12-26T00:59:10.158Z,100138.89
2017-12-26T01:01:35.927Z,100141.86
2017-12-26T01:04:01.917Z,100133.55
2017-12-26T01:06:27.675Z,100123.55
2017-12-26T01:08:53.431Z,100128.83
2017-12-26T01:11:19.227Z,100120.10
2017-12-26T01:13:44.970Z,100126.14
2017-12-26T01:16:10.716Z,100114.36
2017-12-26T01:18:36.461Z,100116.55
2017-12-26T01:21:02.223Z,100113.02
2017-12-26T01:23:27.972Z,100117.78
2017-12-26T01:25:53.724Z,100101.97
2017-12-26T01:28:19.476Z,100095.95
2017-12-26T01:30:45.220Z,100099.48
2017-12-26T01:33:10.967Z,100105.90
2017-12-26T01:35:36.707Z,100100.56
2017-12-26T01:38:02.467Z,100097.41
2017-12-26T01:40:28.241Z,100079.88
2017-12-26T01:42:54.000Z,100089.06
2017-12-26T01:45:19.747Z,100082.90
2017-12-26T01:47:45.499Z,100075.50
2017-12-26T01:50:11.260Z,100064.52
2017-12-26T01:52:37.052Z,100066.71
2017-12-26T01:55:02.810Z,100060.24
2017-12-26T01:57:28.568Z,100061.65
2017-12-26T01:59:54.331Z,100068.28
2017-12-26T02:02:20.108Z,100064.34
2017-12-26T02:04:45.872Z,100052.43
2017-12-26T02:07:11.655Z,100051.49
2017-12-26T02:09:37.407Z,100041.02
2017-12-26T02:12:03.166Z,100030.92
2017-12-26T02:14:28.951Z,100031.37
2017-12-26T02:16:54.707Z,100025.30
2017-12-26T02:19:20.477Z,100019.65
2017-12-26T02:21:46.236Z,100013.08
2017-12-26T02:24:12.011Z,100010.49
2017-12-26T02:26:37.767Z,99999.52
2017-12-26T02:29:03.533Z,99997.73
2017-12-26T02:31:29.292Z,99985.48
2017-12-26T02:33:55.061Z,99978.45
2017-12-26T02:36:20.818Z,99960.55
2017-12-26T02:38:46.584Z,99957.08
2017-12-26T02:41:12.344Z,99956.20
2017-12-26T02:43:38.102Z,99946.14
2017-12-26T02:46:03.861Z,99945.67
2017-12-26T02:48:29.643Z,99946.95
2017-12-26T02:50:55.400Z,99947.79
2017-12-26T02:53:28.185Z,99939.45
2017-12-26T02:55:53.936Z,99937.22
2017-12-26T02:58:19.708Z,99940.75
2017-12-26T03:00:45.463Z,99940.69
2017-12-26T03:03:11.268Z,99945.91
2017-12-26T03:05:37.019Z,99943.20
2017-12-26T03:08:02.768Z,99932.30
2017-12-26T03:10:28.527Z,99928.77
2017-12-26T03:12:54.279Z,99920.02
2017-12-26T03:15:20.039Z,99904.23
2017-12-26T03:17:45.796Z,99912.50
2017-12-26T03:20:11.555Z,99906.85
2017-12-26T03:22:37.319Z,99901.59
2017-12-26T03:25:03.086Z,99904.26
2017-12-26T03:27:28.857Z,99901.13
2017-12-26T03:29:54.618Z,99896.23
2017-12-26T03:32:20.371Z,99891.42
2017-12-26T03:34:46.156Z,99889.75
2017-12-26T03:37:11.967Z,99888.06
2017-12-26T03:39:37.715Z,99877.13
2017-12-26T03:42:03.479Z,99874.98
2017-12-26T03:44:29.223Z,99870.13
2017-12-26T03:46:54.982Z,99875.41
2017-12-26T03:49:20.745Z,99869.33
2017-12-26T03:51:46.496Z,99867.61
2017-12-26T03:54:12.235Z,99858.09
2017-12-26T03:56:37.979Z,99849.75
2017-12-26T03:59:03.712Z,99834.50
2017-12-26T04:01:29.481Z,99832.76
2017-12-26T04:03:55.240Z,99821.45
2017-12-26T04:06:21.004Z,99817.98
2017-12-26T04:08:46.756Z,99814.45
2017-12-26T04:11:12.520Z,99815.33
2017-12-26T04:13:38.254Z,99810.16
2017-12-26T04:16:04.015Z,99788.36
2017-12-26T04:18:29.752Z,99787.55
2017-12-26T04:20:55.502Z,99786.20
2017-12-26T04:23:21.247Z,99785.34
2017-12-26T04:25:47.004Z,99781.36
2017-12-26T04:28:12.739Z,99770.09
2017-12-26T04:30:38.471Z,99759.23
2017-12-26T04:33:04.246Z,99755.78
2017-12-26T04:35:30.004Z,99753.63
2017-12-26T04:37:55.787Z,99741.42
2017-12-26T04:40:21.534Z,99740.00
2017-12-26T04:42:47.319Z,99724.80
2017-12-26T04:45:13.071Z,99718.25
2017-12-26T04:47:38.828Z,99718.72
2017-12-26T04:50:04.599Z,99710.56
2017-12-26T04:52:30.359Z,99705.28
2017-12-26T04:54:56.115Z,99703.17
2017-12-26T04:57:21.868Z,99699.20
2017-12-26T04:59:47.602Z,99686.95
2017-12-26T05:02:13.360Z,99679.59
2017-12-26T05:04:39.111Z,99680.59
2017-12-26T05:07:04.850Z,99671.12
2017-12-26T05:09:30.578Z,99669.92
2017-12-26T05:11:56.335Z,99661.34
2017-12-26T05:14:22.067Z,99647.09
2017-12-26T05:16:47.787Z,99640.70
2017-12-26T05:19:13.537Z,99631.27
2017-12-26T05:21:39.285Z,99613.91
2017-12-26T05:24:05.036Z,99612.67
2017-12-26T05:26:30.776Z,99614.13
2017-12-26T05:28:56.523Z,99652.06
2017-12-26T05:31:22.267Z,99643.44
2017-12-26T05:33:48.002Z,99640.92
2017-12-26T05:36:13.742Z,99632.36
2017-12-26T05:38:39.478Z,99622.32
2017-12-26T05:41:05.201Z,99615.37
2017-12-26T05:43:30.962Z,99612.89
2017-12-26T05:45:56.706Z,99606.99
2017-12-26T05:48:22.459Z,99590.77
2017-12-26T05:50:48.198Z,99586.80
2017-12-26T05:53:13.947Z,99581.30
2017-12-26T05:55:39.695Z,99583.41
2017-12-26T05:58:05.438Z,99589.05
2017-12-26T06:00:31.189Z,99587.52
2017-12-26T06:02:58.349Z,99575.70
2017-12-26T06:05:25.614Z,99573.80
2017-12-26T06:07:51.441Z,99556.00
2017-12-26T06:10:17.195Z,99554.22
2017-12-26T06:12:42.944Z,99559.98
2017-12-26T06:15:08.715Z,99534.25
2017-12-26T06:17:34.474Z,99531.44
2017-12-26T06:20:00.240Z,99513.24
2017-12-26T06:22:25.999Z,99525.66
2017-12-26T06:24:51.763Z,99503.11
2017-12-26T06:27:17.507Z,99483.25
2017-12-26T06:29:43.258Z,99478.41
2017-12-26T06:32:08.993Z,99472.92
2017-12-26T06:34:34.751Z,99459.47
2017-12-26T06:37:00.511Z,99465.07
2017-12-26T06:39:26.283Z,99450.97
2017-12-26T06:41:52.031Z,99443.47
2017-12-26T06:44:17.796Z,99439.91
2017-12-26T06:46:43.555Z,99432.56
2017-12-26T06:49:09.316Z,99436.48
2017-12-26T06:51:35.053Z,99419.83
2017-12-26T06:54:00.823Z,99424.23
2017-12-26T06:56:26.566Z,99408.44
2017-12-26T06:58:52.303Z,99393.09
2017-12-26T07:01:18.046Z,99382.22
2017-12-26T07:03:43.779Z,99390.07
2017-12-26T07:06:09.531Z,99388.76
2017-12-26T07:08:35.278Z,99392.25
2017-12-26T07:11:01.031Z,99393.28
2017-12-26T07:13:26.783Z,99393.99
2017-12-26T07:15:52.534Z,99386.58
2017-12-26T07:18:18.279Z,99390.97
2017-12-26T07:20:50.160Z,99390.08
2017-12-26T07:23:15.910Z,99383.30
2017-12-26T07:25:41.679Z,99367.01
2017-12-26T07:28:07.447Z,99378.53
2017-12-26T07:30:33.207Z,99387.45
2017-12-26T07:32:58.965Z,99387.02
2017-12-26T07:35:24.768Z,99375.73
2017-12-26T07:37:50.502Z,99358.36
2017-12-26T07:40:16.245Z,99356.48
2017-12-26T07:42:42.016Z,99352.97
2017-12-26T07:45:07.776Z,99359.30
2017-12-26T07:47:33.531Z,99370.41
2017-12-26T07:49:59.275Z,99369.01
2017-12-26T07:52:25.019Z,99357.39
2017-12-26T07:54:50.767Z,99358.56
2017-12-26T07:57:16.522Z,99362.69
2017-12-26T07:59:42.267Z,99350.30
2017-12-26T08:02:08.023Z,99352.00
2017-12-26T08:04:33.767Z,99356.21
2017-12-26T08:06:59.527Z,99345.37
2017-12-26T08:09:25.284Z,99342.74
2017-12-26T08:11:51.044Z,99337.48
2017-12-26T08:14:16.792Z,99330.77
2017-12-26T08:16:42.554Z,99336.74
2017-12-26T08:19:08.297Z,99333.67
2017-12-26T08:21:34.071Z,99335.81
2017-12-26T08:23:59.839Z,99322.63
2017-12-26T08:26:25.583Z,99324.33
2017-12-26T08:28:51.335Z,99321.16
2017-12-26T08:31:17.070Z,99316.67
2017-12-26T08:33:42.830Z,99310.83
2017-12-26T08:36:08.563Z,99310.02
2017-12-26T08:38:34.318Z,99295.47
2017-12-26T08:41:00.067Z,99301.58
2017-12-26T08:43:25.827Z,99308.64
2017-12-26T08:45:51.567Z,99301.38
2017-12-26T08:48:17.328Z,99310.19
2017-12-26T08:50:43.098Z,99295.62
2017-12-26T08:53:08.864Z,99295.56
2017-12-26T08:55:34.618Z,99285.05
2017-12-26T08:58:00.388Z,99288.46
2017-12-26T09:00:26.141Z,99291.47
2017-12-26T09:02:51.921Z,99286.70
2017-12-26T09:05:17.668Z,99288.06
2017-12-26T09:07:43.420Z,99290.20
2017-12-26T09:10:09.184Z,99291.95
2017-12-26T09:12:34.926Z,99287.96
2017-12-26T09:15:00.695Z,99280.73
2017-12-26T09:17:26.452Z,99287.41
2017-12-26T09:19:52.232Z,99278.59
2017-12-26T09:22:17.992Z,99274.05
2017-12-26T09:24:43.759Z,99272.08
2017-12-26T09:27:09.511Z,99286.48
2017-12-26T09:29:35.259Z,99286.67
2017-12-26T09:32:01.025Z,99280.55
2017-12-26T09:34:26.755Z,99276.66
2017-12-26T09:36:52.511Z,99285.85
2017-12-26T09:39:18.259Z,99283.11
2017-12-26T09:41:44.060Z,99282.45
2017-12-26T09:44:09.807Z,99288.58
2017-12-26T09:46:35.558Z,99284.97
2017-12-26T09:49:01.308Z,99280.35
2017-12-26T09:51:27.074Z,99280.28
2017-12-26T09:53:52.822Z,99288.24
2017-12-26T09:56:18.578Z,99284.13
2017-12-26T09:58:44.353Z,99275.25
2017-12-26T10:01:10.124Z,99280.00
2017-12-26T10:03:35.879Z,99304.22
2017-12-26T10:06:01.635Z,99282.26
2017-12-26T10:08:27.359Z,99286.91
2017-12-26T10:10:53.125Z,99277.51
2017-12-26T10:13:18.886Z,99287.14
2017-12-26T10:15:44.654Z,99293.62
2017-12-26T10:18:10.416Z,99288.17
2017-12-26T10:20:36.199Z,99279.67
2017-12-26T10:23:01.956Z,99284.38
2017-12-26T10:25:27.723Z,99278.80
2017-12-26T10:27:53.477Z,99272.66
2017-12-26T10:30:19.256Z,99282.31
2017-12-26T10:32:45.016Z,99289.33
2017-12-26T10:35:10.776Z,99290.70
2017-12-26T10:37:36.536Z,99298.16
2017-12-26T10:40:02.302Z,99291.58
2017-12-26T10:42:28.076Z,99293.43
2017-12-26T10:44:53.829Z,99291.75
2017-12-26T10:47:19.573Z,99301.06
2017-12-26T10:49:45.324Z,99306.33
2017-12-26T10:52:11.076Z,99298.11
2017-12-26T10:54:36.816Z,99310.32
2017-12-26T10:57:02.596Z,99312.57
2017-12-26T10:59:28.344Z,99309.67
2017-12-26T11:01:54.097Z,99296.92
2017-12-26T11:04:19.844Z,99315.33
2017-12-26T11:06:45.610Z,99303.48
2017-12-26T11:09:11.362Z,99293.40
2017-12-26T11:11:37.145Z,99300.04
2017-12-26T11:14:02.888Z,99302.72
2017-12-26T11:16:28.673Z,99305.41
2017-12-26T11:18:54.420Z,99303.61
2017-12-26T11:21:20.160Z,99310.23
2017-12-26T11:23:45.921Z,99317.72
2017-12-26T11:26:11.665Z,99309.84
2017-12-26T11:28:37.420Z,99310.78
2017-12-26T11:31:03.165Z,99303.82
2017-12-26T11:33:28.921Z,99301.52
2017-12-26T11:35:54.672Z,99304.25
2017-12-26T11:38:20.428Z,99303.11
2017-12-26T11:40:46.168Z,99304.36
2017-12-26T11:43:11.932Z,99311.44
2017-12-26T11:45:37.688Z,99309.20
2017-12-26T11:48:03.449Z,99311.06
2017-12-26T11:50:29.196Z,99306.84
2017-12-26T11:52:54.944Z,99300.33
2017-12-26T11:55:20.701Z,99316.53
2017-12-26T11:57:46.453Z,99305.14
2017-12-26T12:00:12.221Z,99295.08
2017-12-26T12:02:37.960Z,99308.66
2017-12-26T12:05:03.720Z,99311.39
2017-12-26T12:07:29.468Z,99314.06
2017-12-26T12:09:55.225Z,99312.27
2017-12-26T12:12:20.976Z,99301.65
2017-12-26T12:14:46.716Z,99319.21
2017-12-26T12:17:12.458Z,99318.52
2017-12-26T12:19:38.205Z,99312.16
2017-12-26T12:22:03.960Z,99326.62
2017-12-26T12:24:29.728Z,99315.27
2017-12-26T12:26:55.472Z,99312.38
2017-12-26T12:29:21.229Z,99321.31
2017-12-26T12:31:46.984Z,99316.75
2017-12-26T12:34:12.727Z,99335.27
2017-12-26T12:36:38.476Z,99323.66
2017-12-26T12:39:04.232Z,99334.17
2017-12-26T12:41:30.002Z,99337.73
2017-12-26T12:43:55.755Z,99332.25
2017-12-26T12:46:21.505Z,99329.73
2017-12-26T12:48:47.303Z,99330.77
2017-12-26T12:51:13.018Z,99345.84
2017-12-26T12:53:38.757Z,99342.12
2017-12-26T12:56:04.503Z,99346.16
2017-12-26T12:58:30.247Z,99335.20
2017-12-26T13:00:56.007Z,99327.26
2017-12-26T13:03:21.745Z,99328.14
2017-12-26T13:05:47.519Z,99341.34
2017-12-26T13:08:13.280Z,99346.98
2017-12-26T13:10:39.028Z,99339.20
2017-12-26T13:13:04.780Z,99334.11
2017-12-26T13:15:30.508Z,99338.72
2017-12-26T13:17:56.256Z,99348.13
2017-12-26T13:20:22.019Z,99348.63
2017-12-26T13:22:47.773Z,99348.18
2017-12-26T13:25:13.509Z,99349.99
2017-12-26T13:27:39.261Z,99340.13
2017-12-26T13:30:05.004Z,99355.63
2017-12-26T13:32:30.760Z,99353.16
2017-12-26T13:34:56.492Z,99359.19
2017-12-26T13:37:22.239Z,99351.47
2017-12-26T13:39:47.975Z,99357.42
2017-12-26T13:42:13.714Z,99337.45
2017-12-26T13:44:39.459Z,99341.98
2017-12-26T13:47:05.223Z,99352.87
2017-12-26T13:49:30.977Z,99340.89
2017-12-26T13:51:56.711Z,99341.92
2017-12-26T13:54:22.457Z,99348.78
2017-12-26T13:56:48.196Z,99343.31
2017-12-26T13:59:13.956Z,99346.20
2017-12-26T14:01:39.694Z,99345.97
2017-12-26T14:04:12.329Z,99352.22
2017-12-26T14:06:38.066Z,99350.52
2017-12-26T14:09:03.819Z,99339.02
2017-12-26T14:11:29.556Z,99351.16
2017-12-26T14:13:55.311Z,99362.05
2017-12-26T14:16:21.049Z,99364.50
2017-12-26T14:18:46.811Z,99373.79
2017-12-26T14:21:12.551Z,99382.31
2017-12-26T14:23:38.299Z,99387.53
2017-12-26T14:26:04.055Z,99389.17
2017-12-26T14:28:29.824Z,99383.39
2017-12-26T14:30:55.554Z,99384.95
2017-12-26T14:33:21.313Z,99389.86
2017-12-26T14:35:47.073Z,99386.70
2017-12-26T14:38:12.836Z,99389.56
2017-12-26T14:40:38.594Z,99396.34
2017-12-26T14:43:04.335Z,99402.89
2017-12-26T14:45:30.095Z,99403.38
2017-12-26T14:47:55.842Z,99398.84
2017-12-26T14:50:21.583Z,99416.41
2017-12-26T14:52:47.336Z,99418.62
2017-12-26T14:55:13.083Z,99420.28
2017-12-26T14:57:38.827Z,99423.30
2017-12-26T15:00:04.584Z,99420.53
2017-12-26T15:02:30.330Z,99424.84
2017-12-26T15:04:56.090Z,99421.97
2017-12-26T15:07:21.844Z,99418.24
2017-12-26T15:09:47.608Z,99424.70
2017-12-26T15:12:13.351Z,99433.93
2017-12-26T15:14:39.094Z,99429.58
2017-12-26T15:17:04.848Z,99436.48
2017-12-26T15:19:30.618Z,99424.55
2017-12-26T15:21:56.371Z,99427.86
2017-12-26T15:24:22.103Z,99426.33
2017-12-26T15:26:47.846Z,99430.86
2017-12-26T15:29:13.576Z,99449.87
2017-12-26T15:31:39.343Z,99437.12
2017-12-26T15:34:05.078Z,99448.62
2017-12-26T15:36:30.842Z,99452.20
2017-12-26T15:38:56.585Z,99448.31
2017-12-26T15:41:22.338Z,99450.20
2017-12-26T15:43:48.090Z,99447.19
2017-12-26T15:46:13.880Z,99444.08
2017-12-26T15:48:39.631Z,99443.65
2017-12-26T15:51:05.393Z,99447.44
2017-12-26T15:53:31.132Z,99444.23
2017-12-26T15:55:56.862Z,99445.06
2017-12-26T15:58:22.608Z,99448.40
2017-12-26T16:00:48.343Z,99444.81
2017-12-26T16:03:14.090Z,99450.23
2017-12-26T16:05:39.863Z,99463.12
2017-12-26T16:08:05.592Z,99455.87
2017-12-26T16:10:31.335Z,99459.09
2017-12-26T16:12:57.078Z,99464.33
2017-12-26T16:15:22.816Z,99466.00
2017-12-26T16:17:48.568Z,99460.39
2017-12-26T16:20:14.326Z,99455.36
2017-12-26T16:22:40.071Z,99465.84
2017-12-26T16:25:05.800Z,99470.48
2017-12-26T16:27:31.580Z,99467.79
2017-12-26T16:29:57.319Z,99465.56
2017-12-26T16:32:23.048Z,99462.34
2017-12-26T16:34:48.800Z,99464.45
2017-12-26T16:37:14.579Z,99470.64
2017-12-26T16:39:40.323Z,99477.67
2017-12-26T16:42:06.068Z,99477.27
2017-12-26T16:44:31.825Z,99466.27
2017-12-26T16:46:57.563Z,99476.95
2017-12-26T16:49:23.320Z,99476.91
2017-12-26T16:51:49.044Z,99477.31
2017-12-26T16:54:14.783Z,99484.66
2017-12-26T16:56:40.524Z,99489.85
2017-12-26T16:59:06.267Z,99490.58
2017-12-26T17:01:31.990Z,99492.55
2017-12-26T17:03:57.743Z,99497.79
2017-12-26T17:06:23.476Z,99490.69
2017-12-26T17:08:49.245Z,99494.11
2017-12-26T17:11:14.983Z,99488.55
2017-12-26T17:13:40.714Z,99488.83
2017-12-26T17:16:07.360Z,99501.45
2017-12-26T17:18:33.110Z,99493.12
2017-12-26T17:20:58.863Z,99491.73
2017-12-26T17:23:24.599Z,99482.91
2017-12-26T17:25:50.339Z,99478.58
2017-12-26T17:28:16.075Z,99484.09
2017-12-26T17:30:41.820Z,99478.73
2017-12-26T17:33:07.547Z,99486.95
2017-12-26T17:35:33.296Z,99483.80
2017-12-26T17:37:59.043Z,99488.66
2017-12-26T17:40:24.800Z,99480.27
2017-12-26T17:42:50.551Z,99484.64
2017-12-26T17:45:16.318Z,99479.31
2017-12-26T17:47:42.076Z,99483.39
2017-12-26T17:50:07.838Z,99487.98
2017-12-26T17:52:33.588Z,99479.68
2017-12-26T17:54:59.343Z,99487.98
2017-12-26T17:57:25.100Z,99491.13
2017-12-26T17:59:50.877Z,99483.39
2017-12-26T18:02:16.647Z,99491.70
2017-12-26T18:04:42.396Z,99491.13
2017-12-26T18:07:08.156Z,99493.19
2017-12-26T18:09:33.919Z,99481.21
2017-12-26T18:11:59.689Z,99486.29
2017-12-26T18:14:26.525Z,99480.95
2017-12-26T18:16:52.276Z,99488.82
2017-12-26T18:19:18.039Z,99482.78
2017-12-26T18:21:43.819Z,99487.91
2017-12-26T18:24:09.659Z,99491.09
2017-12-26T18:26:35.407Z,99486.33
2017-12-26T18:29:01.212Z,99490.74
2017-12-26T18:31:26.942Z,99493.19
2017-12-26T18:33:52.702Z,99493.16
2017-12-26T18:36:18.446Z,99488.91
2017-12-26T18:38:44.190Z,99486.64
2017-12-26T18:41:09.966Z,99483.92
2017-12-26T18:43:35.757Z,99480.52
2017-12-26T18:46:01.567Z,99489.65
2017-12-26T18:48:27.334Z,99494.02
2017-12-26T18:50:53.130Z,99488.73
2017-12-26T18:53:18.904Z,99490.96
2017-12-26T18:55:44.666Z,99490.58
2017-12-26T18:58:10.667Z,99494.03
2017-12-26T19:00:36.441Z,99496.78
2017-12-26T19:03:02.211Z,99494.06
2017-12-26T19:05:27.983Z,99496.16
2017-12-26T19:07:53.733Z,99493.14
2017-12-26T19:10:19.747Z,99497.92
2017-12-26T19:12:45.503Z,99499.84
2017-12-26T19:15:11.266Z,99503.30
2017-12-26T19:17:37.015Z,99492.72
2017-12-26T19:20:02.802Z,99492.41
2017-12-26T19:22:28.534Z,99492.23
2017-12-26T19:24:54.287Z,99486.59
2017-12-26T19:27:20.032Z,99484.76
2017-12-26T19:29:45.798Z,99484.84
2017-12-26T19:32:11.547Z,99478.28
2017-12-26T19:34:37.299Z,99487.59
2017-12-26T19:37:03.047Z,99478.20
2017-12-26T19:39:28.798Z,99478.19
2017-12-26T19:41:54.558Z,99471.29
2017-12-26T19:44:20.335Z,99469.71
2017-12-26T19:46:46.086Z,99470.02
2017-12-26T19:49:11.823Z,99474.35
2017-12-26T19:51:37.580Z,99464.81
2017-12-26T19:54:03.330Z,99469.54
2017-12-26T19:56:29.081Z,99464.25
2017-12-26T19:58:54.823Z,99468.27
2017-12-26T20:01:20.572Z,99465.56
2017-12-26T20:03:46.322Z,99463.38
2017-12-26T20:06:12.082Z,99468.79
2017-12-26T20:08:37.825Z,99458.12
2017-12-26T20:11:03.566Z,99472.55
2017-12-26T20:13:29.298Z,99468.61
2017-12-26T20:15:55.076Z,99483.48
2017-12-26T20:18:20.818Z,99482.66
2017-12-26T20:20:46.558Z,99489.30
2017-12-26T20:23:12.310Z,99488.03
2017-12-26T20:25:38.050Z,99484.63
2017-12-26T20:28:09.975Z,99482.00
2017-12-26T20:30:35.716Z,99476.75
2017-12-26T20:33:01.454Z,99479.45
2017-12-26T20:35:27.195Z,99480.25
2017-12-26T20:37:53.260Z,99482.95
2017-12-26T20:40:18.994Z,99473.34
2017-12-26T20:42:44.739Z,99476.88
2017-12-26T20:45:10.484Z,99483.40
2017-12-26T20:47:36.231Z,99486.10
2017-12-26T20:50:01.972Z,99483.05
2017-12-26T20:52:27.715Z,99479.99
2017-12-26T20:54:53.455Z,99483.05
2017-12-26T20:57:19.207Z,99485.72
2017-12-26T20:59:44.931Z,99479.68
2017-12-26T21:02:10.662Z,99482.25
2017-12-26T21:04:36.398Z,99478.05
2017-12-26T21:07:02.126Z,99485.80
2017-12-26T21:09:27.875Z,99474.95
2017-12-26T21:11:53.603Z,99468.48
2017-12-26T21:14:19.342Z,99468.96
2017-12-26T21:16:45.079Z,99462.45
2017-12-26T21:19:10.826Z,99463.41
2017-12-26T21:21:36.559Z,99468.35
2017-12-26T21:24:02.318Z,99463.55
2017-12-26T21:26:28.054Z,99466.99
2017-12-26T21:28:53.799Z,99472.33
2017-12-26T21:31:19.531Z,99468.20
2017-12-26T21:33:45.263Z,99468.24
2017-12-26T21:36:10.991Z,99469.95
2017-12-26T21:38:36.724Z,99471.31
2017-12-26T21:41:02.472Z,99466.19
2017-12-26T21:43:28.214Z,99449.10
2017-12-26T21:45:53.950Z,99457.26
2017-12-26T21:48:19.684Z,99456.11
2017-12-26T21:50:45.422Z,99457.78
2017-12-26T21:53:11.172Z,99459.87
2017-12-26T21:55:36.917Z,99466.79
2017-12-26T21:58:02.646Z,99462.54
2017-12-26T22:00:28.427Z,99458.77
2017-12-26T22:02:54.163Z,99463.78
2017-12-26T22:05:19.920Z,99460.52
2017-12-26T22:07:45.662Z,99457.34
2017-12-26T22:10:11.414Z,99462.02
2017-12-26T22:12:37.150Z,99459.92
2017-12-26T22:15:02.911Z,99459.41
2017-12-26T22:17:28.651Z,99450.14
2017-12-26T22:19:54.389Z,99458.44
2017-12-26T22:22:20.134Z,99451.85
2017-12-26T22:24:45.858Z,99456.34
2017-12-26T22:27:11.590Z,99455.51
2017-12-26T22:29:37.315Z,99450.88
2017-12-26T22:32:03.055Z,99445.11
2017-12-26T22:34:28.790Z,99446.42
2017-12-26T22:36:54.530Z,99445.63
2017-12-26T22:39:20.262Z,99445.70
2017-12-26T22:41:45.999Z,99442.92
2017-12-26T22:44:11.734Z,99452.14
2017-12-26T22:46:37.473Z,99447.20
2017-12-26T22:49:03.211Z,99450.27
2017-12-26T22:51:28.956Z,99453.41
2017-12-26T22:53:54.690Z,99447.73
2017-12-26T22:56:20.426Z,99449.91
2017-12-26T22:58:46.184Z,99453.37
2017-12-26T23:01:11.948Z,99447.25
2017-12-26T23:03:37.697Z,99445.86
2017-12-26T23:06:03.440Z,99448.00
2017-12-26T23:08:29.212Z,99439.78
2017-12-26T23:10:54.958Z,99438.91
2017-12-26T23:13:20.705Z,99432.91
2017-12-26T23:15:52.507Z,99429.15
2017-12-26T23:18:20.214Z,99426.15
2017-12-26T23:20:52.138Z,99421.62
2017-12-26T23:23:24.018Z,99416.90
2017-12-26T23:29:00.686Z,99410.62
2017-12-26T23:31:32.559Z,99411.82
2017-12-26T23:34:04.422Z,99418.41
2017-12-26T23:36:36.401Z,99419.47
2017-12-26T23:39:08.367Z,99411.58
2017-12-26T23:41:40.189Z,99415.69
2017-12-26T23:44:12.214Z,99409.30
2017-12-26T23:49:46.006Z,99402.91
2017-12-26T23:52:17.981Z,99401.75
2017-12-26T23:54:49.937Z,99403.53
2017-12-26T23:57:21.799Z,99402.66
2017-12-26T23:59:53.650Z,99399.53
